createdAt,value
2018-04-10T18:28:43.713Z,99031.48
2018-04-10T18:31:12.841Z,99037.70
2018-04-10T18:33:41.189Z,99040.73
2018-04-10T18:36:09.548Z,99038.41
2018-04-10T18:38:38.812Z,99051.84
2018-04-10T18:41:07.156Z,99062.66
2018-04-10T18:43:35.502Z,99056.64
2018-04-10T18:46:03.832Z,99064.53
2018-04-10T18:48:32.165Z,99071.97
2018-04-10T18:51:00.496Z,99077.05
2018-04-10T18:53:28.810Z,99077.77
2018-04-10T18:55:57.979Z,99081.72
2018-04-10T18:58:26.356Z,99082.42
2018-04-10T19:00:54.677Z,99090.28
2018-04-10T19:03:23.003Z,99091.41
2018-04-10T19:05:51.345Z,99098.58
2018-04-10T19:08:19.697Z,99093.39
2018-04-10T19:10:48.026Z,99093.83
2018-04-10T19:13:16.349Z,99108.08
2018-04-10T19:15:44.677Z,99101.26
2018-04-10T19:18:13.011Z,99104.86
2018-04-10T19:20:41.359Z,99120.07
2018-04-10T19:23:09.691Z,99105.48
2018-04-10T19:25:38.567Z,99109.41
2018-04-10T19:28:10.041Z,99111.44
2018-04-10T19:30:38.396Z,99120.22
2018-04-10T19:33:06.720Z,99118.47
2018-04-10T19:35:35.056Z,99118.03
2018-04-10T19:38:03.381Z,99117.93
2018-04-10T19:40:31.693Z,99122.05
2018-04-10T19:43:00.355Z,99123.13
2018-04-10T19:45:28.705Z,99133.69
2018-04-10T19:47:57.039Z,99125.16
2018-04-10T19:50:25.339Z,99126.46
2018-04-10T19:52:53.738Z,99133.03
2018-04-10T19:55:22.037Z,99136.77
2018-04-10T19:57:50.368Z,99131.53
2018-04-10T20:00:18.711Z,99137.34
2018-04-10T20:02:47.052Z,99131.35
2018-04-10T20:05:15.363Z,99136.52
2018-04-10T20:07:43.688Z,99140.88
2018-04-10T20:10:15.056Z,99137.17
2018-04-10T20:12:43.408Z,99137.35
2018-04-10T20:15:11.846Z,99133.84
2018-04-10T20:17:40.202Z,99129.61
2018-04-10T20:20:08.537Z,99130.77
2018-04-10T20:22:36.871Z,99135.06
2018-04-10T20:25:05.196Z,99135.05
2018-04-10T20:27:33.525Z,99136.16
2018-04-10T20:30:01.849Z,99136.73
2018-04-10T20:32:30.165Z,99136.38
2018-04-10T20:34:58.500Z,99125.98
2018-04-10T20:37:26.832Z,99130.13
2018-04-10T20:39:55.155Z,99128.46
2018-04-10T20:42:23.527Z,99131.48
2018-04-10T20:44:51.867Z,99133.69
2018-04-10T20:47:20.218Z,99131.09
2018-04-10T20:49:48.513Z,99136.14
2018-04-10T20:52:20.290Z,99137.10
2018-04-10T20:54:51.863Z,99137.10
2018-04-10T20:57:20.176Z,99140.95
2018-04-10T20:59:48.505Z,99140.98
2018-04-10T21:02:16.816Z,99153.47
2018-04-10T21:04:45.149Z,99156.13
2018-04-10T21:07:13.478Z,99163.35
2018-04-10T21:09:41.832Z,99161.16
2018-04-10T21:12:10.175Z,99160.69
2018-04-10T21:14:38.527Z,99162.56
2018-04-10T21:17:06.836Z,99170.87
2018-04-10T21:19:35.191Z,99180.32
2018-04-10T21:22:03.508Z,99178.25
2018-04-10T21:24:31.856Z,99178.76
2018-04-10T21:27:00.184Z,99184.23
2018-04-10T21:29:28.518Z,99177.03
2018-04-10T21:31:56.858Z,99185.00
2018-04-10T21:34:25.182Z,99190.31
2018-04-10T21:36:53.523Z,99186.50
2018-04-10T21:39:21.825Z,99181.56
2018-04-10T21:41:50.152Z,99183.98
2018-04-10T21:44:18.471Z,99186.98
2018-04-10T21:46:46.840Z,99186.80
2018-04-10T21:49:15.188Z,99185.80
2018-04-10T21:51:43.520Z,99190.86
2018-04-10T21:54:11.833Z,99188.05
2018-04-10T21:56:40.160Z,99191.43
2018-04-10T21:59:08.491Z,99195.03
2018-04-10T22:01:36.823Z,99190.03
2018-04-10T22:04:05.129Z,99190.58
2018-04-10T22:06:33.464Z,99187.53
2018-04-10T22:09:01.779Z,99187.44
2018-04-10T22:11:30.127Z,99194.45
2018-04-10T22:13:58.438Z,99198.87
2018-04-10T22:16:26.824Z,99200.87
2018-04-10T22:18:55.157Z,99199.20
2018-04-10T22:21:23.503Z,99203.78
2018-04-10T22:23:51.844Z,99205.17
2018-04-10T22:26:20.175Z,99206.16
2018-04-10T22:28:48.527Z,99204.53
2018-04-10T22:31:16.943Z,99204.70
2018-04-10T22:33:45.262Z,99208.18
2018-04-10T22:36:13.571Z,99211.05
2018-04-10T22:38:41.957Z,99208.11
2018-04-10T22:41:10.284Z,99204.09
2018-04-10T22:43:38.624Z,99204.09
2018-04-10T22:46:06.941Z,99206.68
2018-04-10T22:48:35.384Z,99200.57
2018-04-10T22:51:03.713Z,99196.81
2018-04-10T22:53:32.034Z,99192.98
2018-04-10T22:56:00.364Z,99192.55
2018-04-10T22:58:28.685Z,99200.27
2018-04-10T23:01:10.794Z,99197.88
2018-04-10T23:03:42.594Z,99192.13
2018-04-10T23:06:10.913Z,99197.63
2018-04-10T23:08:39.227Z,99198.52
2018-04-10T23:11:07.582Z,99201.02
2018-04-10T23:13:35.905Z,99206.98
2018-04-10T23:16:04.237Z,99209.17
2018-04-10T23:18:32.555Z,99208.64
2018-04-10T23:21:00.894Z,99204.91
2018-04-10T23:23:29.209Z,99204.02
2018-04-10T23:25:57.544Z,99199.00
2018-04-10T23:28:25.872Z,99199.77
2018-04-10T23:30:54.205Z,99198.30
2018-04-10T23:33:22.534Z,99195.45
2018-04-10T23:35:50.869Z,99194.21
2018-04-10T23:38:19.187Z,99193.99
2018-04-10T23:40:47.501Z,99188.20
2018-04-10T23:43:15.840Z,99194.27
2018-04-10T23:45:44.863Z,99192.01
2018-04-10T23:48:13.193Z,99187.84
2018-04-10T23:50:41.560Z,99191.25
2018-04-10T23:53:09.908Z,99181.59
2018-04-10T23:55:38.217Z,99184.02
2018-04-10T23:58:06.553Z,99186.88
